Valor — WDD8691 — position and weather

sailwx.info

Track history (hours):
 
Tides and Currents Weather Stations Pressure Air Temp Water Temp Dewpoint Dewpoint Depression Visibility Wind Speed Wind Dir Waves Ship Positions

Valor

Owner: Crowley Marine Services, Seattle, WA. More information available from US FCC via Universal Licensing System and Coast Guard Vessel Documentation Center.

Last reported at 2016-Aug-24 04:34 UTC. Time now 2016-Aug-24 04:49 UTC.
Position N 37°55' W 122°22'.

Length 8 m; draft 5.5 m.

Type: Tug. MMSI: 367301480.

Date/timePositionNaut miles runAvg speedWind from/ knotsBaromVisibWave heightAir tempDewpointWater temp
2016-Aug-24 04:34N 37°55' W 122°22'0 0.0
2016-Aug-24 03:33N 37°55' W 122°22'0 0.0
2016-Aug-24 02:33N 37°55' W 122°22'0 0.0
2016-Aug-24 01:34N 37°55' W 122°22'0 0.0
2016-Aug-24 00:33N 37°55' W 122°22'0 0.3
2016-Aug-23 23:34N 37°55' W 122°22'0 0.0
2016-Aug-23 22:33N 37°55' W 122°22'0 0.0
2016-Aug-23 21:34N 37°55' W 122°22'0 0.3
2016-Aug-23 20:34N 37°55' W 122°22'0 0.0
2016-Aug-23 19:34N 37°55' W 122°22'0 0.0
2016-Aug-23 18:33N 37°55' W 122°22'0 0.0
2016-Aug-23 17:34N 37°55' W 122°22'0 0.0
2016-Aug-23 16:33N 37°55' W 122°22'0 0.0
2016-Aug-23 15:33N 37°55' W 122°22'0 0.0
2016-Aug-23 14:34N 37°55' W 122°22'0 0.0
2016-Aug-23 13:33N 37°55' W 122°22'0 0.0
2016-Aug-23 12:33N 37°55' W 122°22'0 0.0
2016-Aug-23 11:33N 37°55' W 122°22'2 2.3
2016-Aug-23 10:33N 37°55' W 122°25'1 0.8
2016-Aug-23 09:33N 37°55' W 122°25'8 8.1
2016-Aug-23 08:34N 37°47' W 122°22'2 1.7
2016-Aug-23 07:34N 37°46' W 122°21'2 2.4
2016-Aug-23 06:33N 37°48' W 122°21'0 0.0
2016-Aug-23 05:33N 37°48' W 122°21'4 4.2
2016-Aug-23 04:34N 37°51' W 122°24'1111.0
2016-Aug-23 03:33N 38°02' W 122°22'3 0.4
2016-Aug-22 20:13N 38°03' W 122°18'710.3
2016-Aug-22 19:32N 37°59' W 122°25'4 3.6
2016-Aug-22 18:33N 37°55' W 122°25'4 4.4
2016-Aug-22 17:33N 37°51' W 122°24'3 3.0
2016-Aug-22 16:33N 37°48' W 122°24'0 0.0
2016-Aug-22 15:33N 37°48' W 122°24'0 0.0
2016-Aug-22 14:33N 37°48' W 122°24'0 0.0
2016-Aug-22 13:34N 37°48' W 122°24'4 4.0
2016-Aug-22 12:33N 37°48' W 122°19'2 2.0
2016-Aug-22 11:33N 37°48' W 122°21'1 1.5
2016-Aug-22 10:33N 37°49' W 122°20'0 0.2
2016-Aug-22 09:33N 37°49' W 122°20'1 1.1
2016-Aug-22 08:33N 37°49' W 122°19'0 0.0
2016-Aug-22 07:34N 37°49' W 122°19'0 0.0
2016-Aug-22 06:33N 37°49' W 122°19'0 0.0
2016-Aug-22 05:33N 37°49' W 122°19'0 0.2
2016-Aug-22 04:33N 37°49' W 122°19'9 8.5
2016-Aug-22 03:33N 37°49' W 122°30'4 3.7
2016-Aug-22 02:33N 37°51' W 122°25'5 4.7
2016-Aug-22 01:33N 37°55' W 122°25'0 0.3
2016-Aug-22 00:33N 37°55' W 122°25'8 7.7
2016-Aug-21 23:33N 37°49' W 122°19'1 0.6
2016-Aug-21 22:33N 37°49' W 122°19'0 0.0
2016-Aug-21 21:33N 37°49' W 122°19'0 0.0
2016-Aug-21 20:33N 37°49' W 122°19'0 0.0
2016-Aug-21 19:34N 37°49' W 122°19'0 0.0
2016-Aug-21 18:33N 37°49' W 122°19'0 0.0
2016-Aug-21 17:33N 37°49' W 122°19'0 0.0
2016-Aug-21 16:33N 37°49' W 122°19'0 0.3
2016-Aug-21 15:33N 37°49' W 122°19'2 1.5
2016-Aug-21 14:33N 37°48' W 122°21'0 0.2
2016-Aug-21 13:33N 37°48' W 122°21'1 0.6
2016-Aug-21 12:33N 37°48' W 122°20'2 1.6
2016-Aug-21 11:33N 37°48' W 122°18'1 1.2
2016-Aug-21 10:34N 37°48' W 122°19'2 1.5
2016-Aug-21 09:33N 37°49' W 122°19'0 0.0
2016-Aug-21 08:33N 37°49' W 122°19'0 0.0
2016-Aug-21 07:33N 37°49' W 122°19'0 0.0
2016-Aug-21 06:33N 37°49' W 122°19'0 0.0
2016-Aug-21 05:33N 37°49' W 122°19'3 2.6
2016-Aug-21 04:33N 37°50' W 122°22'10 9.7
2016-Aug-21 03:33N 37°59' W 122°25'1110.7
2016-Aug-21 02:29N 38°03' W 122°11'2 0.8
2016-Aug-21 00:25N 38°04' W 122°13'9 9.8
2016-Aug-20 23:32N 38°01' W 122°24'9 9.3
2016-Aug-20 22:33N 37°52' W 122°25'6 6.2
2016-Aug-20 21:34N 37°48' W 122°30'2 2.2
2016-Aug-20 20:33N 37°49' W 122°28'4 3.5
2016-Aug-20 19:33N 37°48' W 122°24'0 0.0
2016-Aug-20 18:33N 37°48' W 122°24'2 1.5
2016-Aug-20 17:33N 37°50' W 122°24'6 5.5
2016-Aug-20 16:33N 37°55' W 122°25'4 4.2
2016-Aug-20 15:33N 37°51' W 122°23'4 3.6
2016-Aug-20 14:33N 37°48' W 122°21'0 0.0
2016-Aug-20 13:33N 37°48' W 122°21'1 1.2
2016-Aug-20 12:33N 37°48' W 122°19'2 2.1
2016-Aug-20 11:34N 37°48' W 122°22'3 2.8
2016-Aug-20 10:33N 37°49' W 122°19'0 0.0
2016-Aug-20 09:33N 37°49' W 122°19'0 0.0
2016-Aug-20 08:33N 37°49' W 122°19'0 0.0
2016-Aug-20 07:34N 37°49' W 122°19'0 0.0
2016-Aug-20 06:33N 37°49' W 122°19'0 0.0
2016-Aug-20 05:33N 37°49' W 122°19'0 0.0
2016-Aug-20 04:33N 37°49' W 122°19'0 0.0
2016-Aug-20 03:33N 37°49' W 122°19'0 0.0
2016-Aug-20 02:33N 37°49' W 122°19'0 0.0
2016-Aug-20 01:33N 37°49' W 122°19'0 0.0
2016-Aug-20 00:32N 37°49' W 122°19'0 0.0
2016-Aug-19 23:33N 37°49' W 122°19'0 0.0
2016-Aug-19 22:33N 37°49' W 122°19'0 0.0
2016-Aug-19 21:33N 37°49' W 122°19'0 0.0
2016-Aug-19 20:33N 37°49' W 122°19'0 0.0
2016-Aug-19 19:33N 37°49' W 122°19'0 0.0
2016-Aug-19 18:33N 37°49' W 122°19'0 0.0
2016-Aug-19 17:33N 37°49' W 122°19'1 1.0
2016-Aug-19 16:33N 37°49' W 122°20'3 3.3
2016-Aug-19 15:33N 37°48' W 122°24'0 0.0
2016-Aug-19 14:33N 37°48' W 122°24'0 0.0
2016-Aug-19 13:33N 37°48' W 122°24'0 0.0
2016-Aug-19 12:33N 37°48' W 122°24'0 0.0
2016-Aug-19 11:33N 37°48' W 122°24'9 8.7
2016-Aug-19 10:33N 37°57' W 122°26'10 9.8
2016-Aug-19 09:33N 38°03' W 122°17'7 7.1
2016-Aug-19 08:31N 38°02' W 122°07'0 0.0
2016-Aug-19 07:31N 38°02' W 122°07'4 4.2
2016-Aug-19 06:30N 38°04' W 122°12'10 9.1
2016-Aug-19 05:26N 38°01' W 122°24'910.0
2016-Aug-19 04:33N 37°52' W 122°25'7 7.3
2016-Aug-19 03:33N 37°45' W 122°21'2 2.5
2016-Aug-19 02:33N 37°46' W 122°18'0 0.0
2016-Aug-19 01:33N 37°46' W 122°18'0 0.2
2016-Aug-19 00:33N 37°46' W 122°18'0 0.1
2016-Aug-18 23:33N 37°47' W 122°18'0 0.4
2016-Aug-18 22:34N 37°46' W 122°19'0 0.0
2016-Aug-18 21:33N 37°46' W 122°18'0 0.2
2016-Aug-18 20:34N 37°46' W 122°18'0 0.1
2016-Aug-18 19:33N 37°46' W 122°18'0 0.2
2016-Aug-18 18:33N 37°46' W 122°18'0 0.0
2016-Aug-18 17:33N 37°46' W 122°18'3 2.6
2016-Aug-18 16:33N 37°48' W 122°21'0 0.0
2016-Aug-18 15:33N 37°48' W 122°21'0 0.0
2016-Aug-18 14:33N 37°48' W 122°21'0 0.0
2016-Aug-18 13:33N 37°48' W 122°21'1 1.4
2016-Aug-18 12:33N 37°48' W 122°19'0 0.4
2016-Aug-18 11:33N 37°48' W 122°19'1 1.3
2016-Aug-18 10:33N 37°49' W 122°20'1 1.0
2016-Aug-18 09:33N 37°49' W 122°19'2 2.3
2016-Aug-18 08:33N 37°49' W 122°22'9 8.7
2016-Aug-18 07:31N 37°58' W 122°26'8 8.3
2016-Aug-18 06:33N 38°03' W 122°18'7 7.5
2016-Aug-18 05:33N 38°02' W 122°09'7 3.1
2016-Aug-18 03:16N 38°03' W 122°18'6 8.9
2016-Aug-18 02:33N 38°00' W 122°25'10 9.6
2016-Aug-18 01:33N 37°51' W 122°24'7 7.0
2016-Aug-18 00:33N 37°44' W 122°21'4 4.4
2016-Aug-17 23:33N 37°49' W 122°19'1 1.2
2016-Aug-17 22:33N 37°48' W 122°19'1 1.1
2016-Aug-17 21:33N 37°48' W 122°17'4 3.8
2016-Aug-17 20:33N 37°47' W 122°22'2 1.8
2016-Aug-17 19:33N 37°48' W 122°20'2 1.7
2016-Aug-17 18:33N 37°49' W 122°19'0 0.0
2016-Aug-17 17:33N 37°49' W 122°19'0 0.0
2016-Aug-17 16:33N 37°49' W 122°19'0 0.0
2016-Aug-17 15:33N 37°49' W 122°19'0 0.0
2016-Aug-17 14:33N 37°49' W 122°19'0 0.0
2016-Aug-17 13:33N 37°49' W 122°19'0 0.0
2016-Aug-17 12:33N 37°49' W 122°19'0 0.0
2016-Aug-17 11:33N 37°49' W 122°19'0 0.0
2016-Aug-17 10:33N 37°49' W 122°19'0 0.0
2016-Aug-17 09:33N 37°49' W 122°19'0 0.0
2016-Aug-17 08:33N 37°49' W 122°19'0 0.0
2016-Aug-17 07:33N 37°49' W 122°19'0 0.0
2016-Aug-17 06:33N 37°49' W 122°19'0 0.0
2016-Aug-17 05:34N 37°49' W 122°19'0 0.0
2016-Aug-17 04:33N 37°49' W 122°19'0 0.0
2016-Aug-17 03:33N 37°49' W 122°19'0 0.0
2016-Aug-17 02:33N 37°49' W 122°19'0 0.0
2016-Aug-17 01:33N 37°49' W 122°19'0 0.0
2016-Aug-17 00:33N 37°49' W 122°19'1 1.1
2016-Aug-16 23:33N 37°49' W 122°20'3 2.8
2016-Aug-16 22:33N 37°47' W 122°22'2 1.6
2016-Aug-16 21:34N 37°48' W 122°21'2 2.4
2016-Aug-16 20:33N 37°49' W 122°19'0 0.0
2016-Aug-16 19:33N 37°49' W 122°19'0 0.0
2016-Aug-16 18:34N 37°49' W 122°19'0 0.0
2016-Aug-16 17:33N 37°49' W 122°19'0 0.0
2016-Aug-16 16:33N 37°49' W 122°19'3 3.0
2016-Aug-16 15:33N 37°47' W 122°21'1 1.4
2016-Aug-16 14:33N 37°47' W 122°22'6 5.7
2016-Aug-16 13:33N 37°49' W 122°29'2 1.8
2016-Aug-16 12:33N 37°49' W 122°31'2 2.3
2016-Aug-16 11:33N 37°49' W 122°28'8 7.6
2016-Aug-16 10:33N 37°49' W 122°19'0 0.0
2016-Aug-16 09:33N 37°49' W 122°19'0 0.0
2016-Aug-16 08:33N 37°49' W 122°19'0 0.0
2016-Aug-16 07:33N 37°49' W 122°19'8 2.6
2016-Aug-16 04:33N 37°55' W 122°25'1 0.8
2016-Aug-16 03:33N 37°55' W 122°25'6 6.2
2016-Aug-16 02:33N 37°49' W 122°22'1 1.3
2016-Aug-16 01:33N 37°49' W 122°20'1 1.4
2016-Aug-16 00:34N 37°48' W 122°19'0 0.1
2016-Aug-15 23:34N 37°48' W 122°19'0 0.1
2016-Aug-15 22:33N 37°48' W 122°19'1 1.4
2016-Aug-15 21:33N 37°48' W 122°21'5 4.6
2016-Aug-15 20:33N 37°52' W 122°24'9 8.5
2016-Aug-15 19:33N 38°01' W 122°24'8 7.8
2016-Aug-15 18:28N 38°04' W 122°14'6 4.3
2016-Aug-15 17:10N 38°02' W 122°07'1 1.2
2016-Aug-15 16:32N 38°02' W 122°08'9 8.6
2016-Aug-15 15:29N 38°03' W 122°20'9 9.7
2016-Aug-15 14:33N 37°56' W 122°27'7 7.0
2016-Aug-15 13:33N 37°49' W 122°27'4 3.5
2016-Aug-15 12:33N 37°49' W 122°31'3 3.4
2016-Aug-15 11:33N 37°49' W 122°27'3 2.6
2016-Aug-15 10:33N 37°48' W 122°24'0 0.0
2016-Aug-15 09:33N 37°48' W 122°24'0 0.0
2016-Aug-15 08:33N 37°48' W 122°24'0 0.0
2016-Aug-15 07:33N 37°48' W 122°24'0 0.0
2016-Aug-15 06:33N 37°48' W 122°24'12 6.1
2016-Aug-15 04:33N 38°00' W 122°24'7 7.4
2016-Aug-15 03:33N 38°04' W 122°16'6 6.4
2016-Aug-15 02:33N 38°02' W 122°08'2 0.4
2016-Aug-14 22:12N 38°02' W 122°10'3 4.8
2016-Aug-14 21:33N 38°03' W 122°06'3 2.5
2016-Aug-14 20:33N 38°02' W 122°09'5 4.6
2016-Aug-14 19:33N 38°03' W 122°15'0 0.0
2016-Aug-14 18:32N 38°03' W 122°15'0 0.0
2016-Aug-14 17:33N 38°03' W 122°15'0 0.0
2016-Aug-14 16:33N 38°03' W 122°15'0 0.0
2016-Aug-14 15:33N 38°03' W 122°15'8 5.9
2016-Aug-14 14:15N 38°01' W 122°24'5 7.6
2016-Aug-14 13:33N 37°56' W 122°26'7 7.5
2016-Aug-14 12:34N 37°49' W 122°21'2 2.0
2016-Aug-14 11:34N 37°48' W 122°19'0 0.0
2016-Aug-14 10:33N 37°48' W 122°19'0 0.0
2016-Aug-14 09:33N 37°48' W 122°19'7 7.2
2016-Aug-14 08:33N 37°53' W 122°25'9 9.1
2016-Aug-14 07:33N 38°02' W 122°21'10 7.7
2016-Aug-14 06:17N 38°02' W 122°09'  
Track history (hours):
 
Tides and Currents Weather Stations Pressure Air Temp Water Temp Dewpoint Dewpoint Depression Visibility Wind Speed Wind Dir Waves Ship Positions

Valor

Owner: Crowley Marine Services, Seattle, WA. More information available from US FCC via Universal Licensing System and Coast Guard Vessel Documentation Center.

Last reported at 2016-Aug-24 04:34 UTC. Time now 2016-Aug-24 04:49 UTC.
Position N 37°55' W 122°22'.

Length 8 m; draft 5.5 m.

Type: Tug. MMSI: 367301480.

Date/timePositionNaut miles runAvg speedWind from/ knotsBaromVisibWave heightAir tempDewpointWater temp
2016-Aug-24 04:34N 37°55' W 122°22'0 0.0
2016-Aug-24 03:33N 37°55' W 122°22'0 0.0
2016-Aug-24 02:33N 37°55' W 122°22'0 0.0
2016-Aug-24 01:34N 37°55' W 122°22'0 0.0
2016-Aug-24 00:33N 37°55' W 122°22'0 0.3
2016-Aug-23 23:34N 37°55' W 122°22'0 0.0
2016-Aug-23 22:33N 37°55' W 122°22'0 0.0
2016-Aug-23 21:34N 37°55' W 122°22'0 0.3
2016-Aug-23 20:34N 37°55' W 122°22'0 0.0
2016-Aug-23 19:34N 37°55' W 122°22'0 0.0
2016-Aug-23 18:33N 37°55' W 122°22'0 0.0
2016-Aug-23 17:34N 37°55' W 122°22'0 0.0
2016-Aug-23 16:33N 37°55' W 122°22'0 0.0
2016-Aug-23 15:33N 37°55' W 122°22'0 0.0
2016-Aug-23 14:34N 37°55' W 122°22'0 0.0
2016-Aug-23 13:33N 37°55' W 122°22'0 0.0
2016-Aug-23 12:33N 37°55' W 122°22'0 0.0
2016-Aug-23 11:33N 37°55' W 122°22'2 2.3
2016-Aug-23 10:33N 37°55' W 122°25'1 0.8
2016-Aug-23 09:33N 37°55' W 122°25'8 8.1
2016-Aug-23 08:34N 37°47' W 122°22'2 1.7
2016-Aug-23 07:34N 37°46' W 122°21'2 2.4
2016-Aug-23 06:33N 37°48' W 122°21'0 0.0
2016-Aug-23 05:33N 37°48' W 122°21'4 4.2
2016-Aug-23 04:34N 37°51' W 122°24'1111.0
2016-Aug-23 03:33N 38°02' W 122°22'3 0.4
2016-Aug-22 20:13N 38°03' W 122°18'710.3
2016-Aug-22 19:32N 37°59' W 122°25'4 3.6
2016-Aug-22 18:33N 37°55' W 122°25'4 4.4
2016-Aug-22 17:33N 37°51' W 122°24'3 3.0
2016-Aug-22 16:33N 37°48' W 122°24'0 0.0
2016-Aug-22 15:33N 37°48' W 122°24'0 0.0
2016-Aug-22 14:33N 37°48' W 122°24'0 0.0
2016-Aug-22 13:34N 37°48' W 122°24'4 4.0
2016-Aug-22 12:33N 37°48' W 122°19'2 2.0
2016-Aug-22 11:33N 37°48' W 122°21'1 1.5
2016-Aug-22 10:33N 37°49' W 122°20'0 0.2
2016-Aug-22 09:33N 37°49' W 122°20'1 1.1
2016-Aug-22 08:33N 37°49' W 122°19'0 0.0
2016-Aug-22 07:34N 37°49' W 122°19'0 0.0
2016-Aug-22 06:33N 37°49' W 122°19'0 0.0
2016-Aug-22 05:33N 37°49' W 122°19'0 0.2
2016-Aug-22 04:33N 37°49' W 122°19'9 8.5
2016-Aug-22 03:33N 37°49' W 122°30'4 3.7
2016-Aug-22 02:33N 37°51' W 122°25'5 4.7
2016-Aug-22 01:33N 37°55' W 122°25'0 0.3
2016-Aug-22 00:33N 37°55' W 122°25'8 7.7
2016-Aug-21 23:33N 37°49' W 122°19'1 0.6
2016-Aug-21 22:33N 37°49' W 122°19'0 0.0
2016-Aug-21 21:33N 37°49' W 122°19'0 0.0
2016-Aug-21 20:33N 37°49' W 122°19'0 0.0
2016-Aug-21 19:34N 37°49' W 122°19'0 0.0
2016-Aug-21 18:33N 37°49' W 122°19'0 0.0
2016-Aug-21 17:33N 37°49' W 122°19'0 0.0
2016-Aug-21 16:33N 37°49' W 122°19'0 0.3
2016-Aug-21 15:33N 37°49' W 122°19'2 1.5
2016-Aug-21 14:33N 37°48' W 122°21'0 0.2
2016-Aug-21 13:33N 37°48' W 122°21'1 0.6
2016-Aug-21 12:33N 37°48' W 122°20'2 1.6
2016-Aug-21 11:33N 37°48' W 122°18'1 1.2
2016-Aug-21 10:34N 37°48' W 122°19'2 1.5
2016-Aug-21 09:33N 37°49' W 122°19'0 0.0
2016-Aug-21 08:33N 37°49' W 122°19'0 0.0
2016-Aug-21 07:33N 37°49' W 122°19'0 0.0
2016-Aug-21 06:33N 37°49' W 122°19'0 0.0
2016-Aug-21 05:33N 37°49' W 122°19'3 2.6
2016-Aug-21 04:33N 37°50' W 122°22'10 9.7
2016-Aug-21 03:33N 37°59' W 122°25'1110.7
2016-Aug-21 02:29N 38°03' W 122°11'2 0.8
2016-Aug-21 00:25N 38°04' W 122°13'9 9.8
2016-Aug-20 23:32N 38°01' W 122°24'9 9.3
2016-Aug-20 22:33N 37°52' W 122°25'6 6.2
2016-Aug-20 21:34N 37°48' W 122°30'2 2.2
2016-Aug-20 20:33N 37°49' W 122°28'4 3.5
2016-Aug-20 19:33N 37°48' W 122°24'0 0.0
2016-Aug-20 18:33N 37°48' W 122°24'2 1.5
2016-Aug-20 17:33N 37°50' W 122°24'6 5.5
2016-Aug-20 16:33N 37°55' W 122°25'4 4.2
2016-Aug-20 15:33N 37°51' W 122°23'4 3.6
2016-Aug-20 14:33N 37°48' W 122°21'0 0.0
2016-Aug-20 13:33N 37°48' W 122°21'1 1.2
2016-Aug-20 12:33N 37°48' W 122°19'2 2.1
2016-Aug-20 11:34N 37°48' W 122°22'3 2.8
2016-Aug-20 10:33N 37°49' W 122°19'0 0.0
2016-Aug-20 09:33N 37°49' W 122°19'0 0.0
2016-Aug-20 08:33N 37°49' W 122°19'0 0.0
2016-Aug-20 07:34N 37°49' W 122°19'0 0.0
2016-Aug-20 06:33N 37°49' W 122°19'0 0.0
2016-Aug-20 05:33N 37°49' W 122°19'0 0.0
2016-Aug-20 04:33N 37°49' W 122°19'0 0.0
2016-Aug-20 03:33N 37°49' W 122°19'0 0.0
2016-Aug-20 02:33N 37°49' W 122°19'0 0.0
2016-Aug-20 01:33N 37°49' W 122°19'0 0.0
2016-Aug-20 00:32N 37°49' W 122°19'0 0.0
2016-Aug-19 23:33N 37°49' W 122°19'0 0.0
2016-Aug-19 22:33N 37°49' W 122°19'0 0.0
2016-Aug-19 21:33N 37°49' W 122°19'0 0.0
2016-Aug-19 20:33N 37°49' W 122°19'0 0.0
2016-Aug-19 19:33N 37°49' W 122°19'0 0.0
2016-Aug-19 18:33N 37°49' W 122°19'0 0.0
2016-Aug-19 17:33N 37°49' W 122°19'1 1.0
2016-Aug-19 16:33N 37°49' W 122°20'3 3.3
2016-Aug-19 15:33N 37°48' W 122°24'0 0.0
2016-Aug-19 14:33N 37°48' W 122°24'0 0.0
2016-Aug-19 13:33N 37°48' W 122°24'0 0.0
2016-Aug-19 12:33N 37°48' W 122°24'0 0.0
2016-Aug-19 11:33N 37°48' W 122°24'9 8.7
2016-Aug-19 10:33N 37°57' W 122°26'10 9.8
2016-Aug-19 09:33N 38°03' W 122°17'7 7.1
2016-Aug-19 08:31N 38°02' W 122°07'0 0.0
2016-Aug-19 07:31N 38°02' W 122°07'4 4.2
2016-Aug-19 06:30N 38°04' W 122°12'10 9.1
2016-Aug-19 05:26N 38°01' W 122°24'910.0
2016-Aug-19 04:33N 37°52' W 122°25'7 7.3
2016-Aug-19 03:33N 37°45' W 122°21'2 2.5
2016-Aug-19 02:33N 37°46' W 122°18'0 0.0
2016-Aug-19 01:33N 37°46' W 122°18'0 0.2
2016-Aug-19 00:33N 37°46' W 122°18'0 0.1
2016-Aug-18 23:33N 37°47' W 122°18'0 0.4
2016-Aug-18 22:34N 37°46' W 122°19'0 0.0
2016-Aug-18 21:33N 37°46' W 122°18'0 0.2
2016-Aug-18 20:34N 37°46' W 122°18'0 0.1
2016-Aug-18 19:33N 37°46' W 122°18'0 0.2
2016-Aug-18 18:33N 37°46' W 122°18'0 0.0
2016-Aug-18 17:33N 37°46' W 122°18'3 2.6
2016-Aug-18 16:33N 37°48' W 122°21'0 0.0
2016-Aug-18 15:33N 37°48' W 122°21'0 0.0
2016-Aug-18 14:33N 37°48' W 122°21'0 0.0
2016-Aug-18 13:33N 37°48' W 122°21'1 1.4
2016-Aug-18 12:33N 37°48' W 122°19'0 0.4
2016-Aug-18 11:33N 37°48' W 122°19'1 1.3
2016-Aug-18 10:33N 37°49' W 122°20'1 1.0
2016-Aug-18 09:33N 37°49' W 122°19'2 2.3
2016-Aug-18 08:33N 37°49' W 122°22'9 8.7
2016-Aug-18 07:31N 37°58' W 122°26'8 8.3
2016-Aug-18 06:33N 38°03' W 122°18'7 7.5
2016-Aug-18 05:33N 38°02' W 122°09'7 3.1
2016-Aug-18 03:16N 38°03' W 122°18'6 8.9
2016-Aug-18 02:33N 38°00' W 122°25'10 9.6
2016-Aug-18 01:33N 37°51' W 122°24'7 7.0
2016-Aug-18 00:33N 37°44' W 122°21'4 4.4
2016-Aug-17 23:33N 37°49' W 122°19'1 1.2
2016-Aug-17 22:33N 37°48' W 122°19'1 1.1
2016-Aug-17 21:33N 37°48' W 122°17'4 3.8
2016-Aug-17 20:33N 37°47' W 122°22'2 1.8
2016-Aug-17 19:33N 37°48' W 122°20'2 1.7
2016-Aug-17 18:33N 37°49' W 122°19'0 0.0
2016-Aug-17 17:33N 37°49' W 122°19'0 0.0
2016-Aug-17 16:33N 37°49' W 122°19'0 0.0
2016-Aug-17 15:33N 37°49' W 122°19'0 0.0
2016-Aug-17 14:33N 37°49' W 122°19'0 0.0
2016-Aug-17 13:33N 37°49' W 122°19'0 0.0
2016-Aug-17 12:33N 37°49' W 122°19'0 0.0
2016-Aug-17 11:33N 37°49' W 122°19'0 0.0
2016-Aug-17 10:33N 37°49' W 122°19'0 0.0
2016-Aug-17 09:33N 37°49' W 122°19'0 0.0
2016-Aug-17 08:33N 37°49' W 122°19'0 0.0
2016-Aug-17 07:33N 37°49' W 122°19'0 0.0
2016-Aug-17 06:33N 37°49' W 122°19'0 0.0
2016-Aug-17 05:34N 37°49' W 122°19'0 0.0
2016-Aug-17 04:33N 37°49' W 122°19'0 0.0
2016-Aug-17 03:33N 37°49' W 122°19'0 0.0
2016-Aug-17 02:33N 37°49' W 122°19'0 0.0
2016-Aug-17 01:33N 37°49' W 122°19'0 0.0
2016-Aug-17 00:33N 37°49' W 122°19'1 1.1
2016-Aug-16 23:33N 37°49' W 122°20'3 2.8
2016-Aug-16 22:33N 37°47' W 122°22'2 1.6
2016-Aug-16 21:34N 37°48' W 122°21'2 2.4
2016-Aug-16 20:33N 37°49' W 122°19'0 0.0
2016-Aug-16 19:33N 37°49' W 122°19'0 0.0
2016-Aug-16 18:34N 37°49' W 122°19'0 0.0
2016-Aug-16 17:33N 37°49' W 122°19'0 0.0
2016-Aug-16 16:33N 37°49' W 122°19'3 3.0
2016-Aug-16 15:33N 37°47' W 122°21'1 1.4
2016-Aug-16 14:33N 37°47' W 122°22'6 5.7
2016-Aug-16 13:33N 37°49' W 122°29'2 1.8
2016-Aug-16 12:33N 37°49' W 122°31'2 2.3
2016-Aug-16 11:33N 37°49' W 122°28'8 7.6
2016-Aug-16 10:33N 37°49' W 122°19'0 0.0
2016-Aug-16 09:33N 37°49' W 122°19'0 0.0
2016-Aug-16 08:33N 37°49' W 122°19'0 0.0
2016-Aug-16 07:33N 37°49' W 122°19'8 2.6
2016-Aug-16 04:33N 37°55' W 122°25'1 0.8
2016-Aug-16 03:33N 37°55' W 122°25'6 6.2
2016-Aug-16 02:33N 37°49' W 122°22'1 1.3
2016-Aug-16 01:33N 37°49' W 122°20'1 1.4
2016-Aug-16 00:34N 37°48' W 122°19'0 0.1
2016-Aug-15 23:34N 37°48' W 122°19'0 0.1
2016-Aug-15 22:33N 37°48' W 122°19'1 1.4
2016-Aug-15 21:33N 37°48' W 122°21'5 4.6
2016-Aug-15 20:33N 37°52' W 122°24'9 8.5
2016-Aug-15 19:33N 38°01' W 122°24'8 7.8
2016-Aug-15 18:28N 38°04' W 122°14'6 4.3
2016-Aug-15 17:10N 38°02' W 122°07'1 1.2
2016-Aug-15 16:32N 38°02' W 122°08'9 8.6
2016-Aug-15 15:29N 38°03' W 122°20'9 9.7
2016-Aug-15 14:33N 37°56' W 122°27'7 7.0
2016-Aug-15 13:33N 37°49' W 122°27'4 3.5
2016-Aug-15 12:33N 37°49' W 122°31'3 3.4
2016-Aug-15 11:33N 37°49' W 122°27'3 2.6
2016-Aug-15 10:33N 37°48' W 122°24'0 0.0
2016-Aug-15 09:33N 37°48' W 122°24'0 0.0
2016-Aug-15 08:33N 37°48' W 122°24'0 0.0
2016-Aug-15 07:33N 37°48' W 122°24'0 0.0
2016-Aug-15 06:33N 37°48' W 122°24'12 6.1
2016-Aug-15 04:33N 38°00' W 122°24'7 7.4
2016-Aug-15 03:33N 38°04' W 122°16'6 6.4
2016-Aug-15 02:33N 38°02' W 122°08'2 0.4
2016-Aug-14 22:12N 38°02' W 122°10'3 4.8
2016-Aug-14 21:33N 38°03' W 122°06'3 2.5
2016-Aug-14 20:33N 38°02' W 122°09'5 4.6
2016-Aug-14 19:33N 38°03' W 122°15'0 0.0
2016-Aug-14 18:32N 38°03' W 122°15'0 0.0
2016-Aug-14 17:33N 38°03' W 122°15'0 0.0
2016-Aug-14 16:33N 38°03' W 122°15'0 0.0
2016-Aug-14 15:33N 38°03' W 122°15'8 5.9
2016-Aug-14 14:15N 38°01' W 122°24'5 7.6
2016-Aug-14 13:33N 37°56' W 122°26'7 7.5
2016-Aug-14 12:34N 37°49' W 122°21'2 2.0
2016-Aug-14 11:34N 37°48' W 122°19'0 0.0
2016-Aug-14 10:33N 37°48' W 122°19'0 0.0
2016-Aug-14 09:33N 37°48' W 122°19'7 7.2
2016-Aug-14 08:33N 37°53' W 122°25'9 9.1
2016-Aug-14 07:33N 38°02' W 122°21'10 7.7
2016-Aug-14 06:17N 38°02' W 122°09'  

Dump ship's entire track history